Terminal Aerodrome Forecast
Issued by NWS

Home | Current Version | Previous Version | Text Only | Print | Product List | Glossary On
Versions: 1 2 3 4 5 6 7 8 9 10 11 12 13 14 15 16 17 18 19
000
FTAK31 PAJN 191802 AAA
TAFAGY
TAF AMD
PAGY 191802Z 1918/2018 VRB03KT P6SM SCT015 OVC080
     FM192000 21007KT P6SM FEW035 BKN080
     FM200400 03004KT P6SM SCT080 BKN200
      AMD LTD TO CLD VIS AND WIND=

USA.gov is the U.S. government's official web portal to all federal, state and local government web resources and services.